• Join FlightAware (Why Join?)
  • Login
  • US Flag 
11:56PM EDT


 

Airport Tracker/Info


-or-


 

Live Flight TrackerFlight Track Log ✈ VH-FGT ✈ 20-Jun-2013 ✈ YAYE / AYQ - YBAS / ASP

Flight Track Log - Related Links

Times and Time Zones

All times are in EDT time to prevent confusion due to time zone crossing. See the VH-FGT flight status page for this flight to view local times or setup timezone preferences in your user account.

Time Position Orientation Groundspeed Altitude Reporting Facility
EDT Latitude Longitude Course Direction KTS MPH feet Rate Location/Type
10:43PM -25.1296 131.0659 63° Northeast 21,000  Level Aus ATC (Calculated)
10:43PM -25.0877 131.1570 360° North 21,000  Level Aus ATC (Calculated)
10:43PM -25.0877 131.1570 63° Northeast 21,000  Level Aus ATC (Calculated)
10:46PM -25.0175 131.3091 63° Northeast  Level FlightAware Approximate
10:46PM -25.0037 131.3389 360° North 21,000  Level Aus ATC (Calculated)
10:46PM -25.0037 131.3389 63° Northeast 21,000  Level Aus ATC (Calculated)
10:47PM -24.9848 131.3798 63° Northeast  Level FlightAware Approximate
10:48PM -24.9660 131.4202 63° Northeast  Level FlightAware Approximate
10:49PM -24.9365 131.4838 63° Northeast  Level FlightAware Approximate
10:50PM -24.9037 131.5544 63° Northeast  Level FlightAware Approximate
10:51PM -24.8709 131.6250 63° Northeast  Level FlightAware Approximate
10:52PM -24.8380 131.6955 63° Northeast  Level FlightAware Approximate
10:53PM -24.8051 131.7660 63° Northeast  Level FlightAware Approximate
10:54PM -24.7722 131.8365 63° Northeast  Level FlightAware Approximate
10:55PM -24.7392 131.9069 63° Northeast  Level FlightAware Approximate
10:56PM -24.7062 131.9773 63° Northeast  Level FlightAware Approximate
10:56PM -24.7078 131.9738 63° Northeast 21,000  Level Aus ATC (Calculated)
10:57PM -24.6732 132.0476 63° Northeast  Level FlightAware Approximate
10:58PM -24.6660 132.0629 63° Northeast  Level FlightAware Approximate
10:59PM -24.6329 132.1332 63° Northeast  Level FlightAware Approximate
11:00PM -24.5998 132.2035 63° Northeast  Level FlightAware Approximate
11:01PM -24.5674 132.2741 62° Northeast  Level Estimated
11:02PM -24.5341 132.3442 62° Northeast  Level FlightAware Approximate
11:03PM -24.5008 132.4143 62° Northeast  Level FlightAware Approximate
11:03PM -24.5376 132.3353 63° Northeast 21,000  Level Aus ATC (Calculated)
11:03PM -24.4949 132.4255 62° Northeast 21,000  Level Aus ATC (Calculated)
11:05PM -24.4382 132.5445 62° Northeast  Level FlightAware Approximate
11:05PM -24.4514 132.5168 62° Northeast 3,000  Level Aus ATC (Calculated)
11:05PM -24.4079 132.6080 242° Southwest 3,000  Level Aus ATC (Calculated)
11:06PM -24.4180 132.5867 62° Northeast  Level FlightAware Approximate
11:07PM -24.3700 132.6872 62° Northeast  Level FlightAware Approximate
11:07PM -24.3643 132.6991 62° Northeast 3,000  Level Aus ATC (Calculated)
11:08PM -24.3365 132.7571 62° Northeast  Level FlightAware Approximate
11:09PM -24.3235 132.7841 62° Northeast  Level FlightAware Approximate
11:10PM -24.2900 132.8540 62° Northeast  Level FlightAware Approximate
11:11PM -24.2565 132.9238 62° Northeast  Level FlightAware Approximate
11:12PM -24.2229 132.9935 62° Northeast  Level FlightAware Approximate
11:13PM -24.1893 133.0633 62° Northeast  Level FlightAware Approximate
11:13PM -24.1455 133.1538 62° Northeast 3,000  Level Aus ATC (Calculated)
11:15PM -24.0933 133.2618 62° Northeast  Level FlightAware Approximate
11:15PM -24.0576 133.3353 62° Northeast 3,000  Level Aus ATC (Calculated)
11:16PM -24.0136 133.4259 62° Northeast 3,000  Level Aus ATC (Calculated)
11:17PM -23.9695 133.5165 62° Northeast 3,000  Level Aus ATC (Calculated)
11:19PM -23.9170 133.6241 62° Northeast  Level FlightAware Approximate
11:19PM -23.8812 133.6975 62° Northeast 3,000  Level Aus ATC (Calculated)
11:20PM -23.8370 133.7879 62° Northeast 3,000  Level Aus ATC (Calculated)
11:21PM -23.8241 133.8142 62° Northeast  Level FlightAware Approximate